Time;durP1;ratioP1;P1;durP2;ratioP2;P2;SDS_P1;SDS_P2;PMS_P1;PMS_P2;Temp;Humidity;BMP_temperature;BMP_pressure;BME280_temperature;BME280_humidity;BME280_pressure;Samples;Min_cycle;Max_cycle;Signal;HPM_P1;HPM_P2
2023/08/23 04:02:37;;;;;;;3.73;3.53;;;15.50;99.90;;;;;;6150905;23;20885;-70
2023/08/23 04:05:05;;;;;;;3.13;2.93;;;15.50;99.90;;;;;;6154453;23;20410;-71
2023/08/23 04:07:32;;;;;;;3.33;3.13;;;15.50;99.90;;;;;;6151940;23;20426;-71
2023/08/23 04:10:00;;;;;;;7.30;2.70;;;15.50;99.90;;;;;;6150660;23;20776;-71
2023/08/23 04:12:26;;;;;;;3.77;3.57;;;15.50;99.90;;;;;;6153073;23;20439;-71
2023/08/23 04:14:53;;;;;;;3.90;3.60;;;15.50;99.90;;;;;;6153914;23;20907;-67
2023/08/23 04:17:20;;;;;;;3.60;3.40;;;15.50;99.90;;;;;;6151730;23;20883;-67
2023/08/23 04:19:48;;;;;;;3.47;3.27;;;15.50;99.90;;;;;;6154539;23;20497;-68
2023/08/23 04:22:15;;;;;;;3.60;3.37;;;15.50;99.90;;;;;;6152296;23;20933;-68
2023/08/23 04:24:41;;;;;;;3.43;3.13;;;15.50;99.90;;;;;;6153908;23;20458;-68
2023/08/23 04:27:08;;;;;;;4.30;3.60;;;15.50;99.90;;;;;;6153700;23;20489;-68
2023/08/23 04:29:35;;;;;;;4.97;3.40;;;15.50;99.90;;;;;;6154818;23;20415;-68
2023/08/23 04:32:02;;;;;;;3.30;2.80;;;15.50;99.90;;;;;;6153808;23;20422;-68
2023/08/23 04:34:29;;;;;;;7.40;4.07;;;15.50;99.90;;;;;;6154549;23;20457;-68
2023/08/23 04:36:57;;;;;;;4.00;3.83;;;15.50;99.90;;;;;;6154833;23;20427;-68
2023/08/23 04:39:24;;;;;;;3.00;2.77;;;15.50;99.90;;;;;;6154552;23;20469;-68
2023/08/23 04:41:50;;;;;;;5.20;3.37;;;15.60;99.90;;;;;;6154976;23;20419;-68
2023/08/23 04:44:17;;;;;;;4.80;3.80;;;15.60;99.90;;;;;;6154431;23;20422;-67
2023/08/23 04:46:44;;;;;;;3.07;2.87;;;15.70;99.90;;;;;;6154495;23;20418;-68
2023/08/23 04:49:11;;;;;;;20.73;3.73;;;15.70;99.90;;;;;;6154263;23;20498;-68
2023/08/23 04:51:37;;;;;;;3.07;2.97;;;15.70;99.90;;;;;;6155043;23;20419;-68
2023/08/23 04:54:05;;;;;;;4.50;3.40;;;15.80;99.90;;;;;;6154608;23;20419;-68
2023/08/23 04:56:32;;;;;;;3.67;3.40;;;15.90;99.90;;;;;;6154687;23;20461;-68
2023/08/23 04:58:59;;;;;;;3.40;3.10;;;15.90;99.90;;;;;;6153432;23;20445;-68
2023/08/23 05:01:25;;;;;;;5.23;3.87;;;16.00;99.90;;;;;;6154207;23;20422;-68
2023/08/23 05:03:52;;;;;;;4.67;3.43;;;16.00;99.90;;;;;;6153647;23;20429;-68
2023/08/23 05:06:19;;;;;;;3.60;3.30;;;16.00;99.90;;;;;;6154514;23;20435;-68
2023/08/23 05:08:45;;;;;;;3.07;2.97;;;16.10;99.90;;;;;;6153495;23;20430;-68
2023/08/23 05:11:13;;;;;;;3.90;3.47;;;16.20;99.90;;;;;;6155168;23;20483;-68
2023/08/23 05:13:40;;;;;;;5.50;2.40;;;16.20;99.90;;;;;;6153673;23;20423;-68
2023/08/23 05:16:07;;;;;;;3.23;3.13;;;16.20;99.90;;;;;;6153703;23;20470;-68
2023/08/23 05:18:33;;;;;;;3.30;3.00;;;16.30;99.90;;;;;;6153730;23;20927;-68
2023/08/23 05:21:02;;;;;;;5.43;3.77;;;16.40;99.90;;;;;;6152183;23;20427;-68
2023/08/23 05:23:28;;;;;;;3.30;3.10;;;16.40;99.90;;;;;;6153674;23;20511;-68
2023/08/23 05:25:56;;;;;;;3.33;2.70;;;16.60;99.90;;;;;;6153878;23;20948;-68
2023/08/23 05:28:24;;;;;;;3.90;3.60;;;16.70;99.90;;;;;;6151329;23;20905;-68
2023/08/23 05:30:51;;;;;;;4.17;3.77;;;16.80;99.90;;;;;;6152167;23;20934;-68
2023/08/23 05:33:17;;;;;;;3.07;2.87;;;17.00;99.90;;;;;;6153449;23;20419;-68
2023/08/23 05:35:44;;;;;;;2.33;2.23;;;17.10;99.90;;;;;;6153189;23;20461;-68
2023/08/23 05:38:11;;;;;;;4.27;3.13;;;17.30;99.90;;;;;;6153185;23;20421;-68
2023/08/23 05:40:38;;;;;;;2.97;2.77;;;17.30;99.90;;;;;;6153718;23;20421;-68
2023/08/23 05:43:05;;;;;;;6.83;3.17;;;17.40;99.90;;;;;;6153281;23;20429;-68
2023/08/23 05:45:33;;;;;;;3.13;2.57;;;17.40;99.90;;;;;;6154377;23;20464;-69
2023/08/23 05:48:00;;;;;;;6.07;3.07;;;17.50;99.90;;;;;;6153621;23;20428;-69
2023/08/23 05:50:27;;;;;;;3.93;3.63;;;17.60;99.90;;;;;;6152340;23;20425;-69
2023/08/23 05:52:54;;;;;;;2.20;2.10;;;17.60;99.90;;;;;;6153799;23;20434;-69
2023/08/23 05:55:21;;;;;;;4.30;3.90;;;17.60;99.90;;;;;;6153761;23;20456;-69
2023/08/23 05:57:47;;;;;;;3.17;2.87;;;17.70;99.90;;;;;;6152136;23;20420;-69
2023/08/23 06:00:14;;;;;;;2.97;2.60;;;17.80;99.90;;;;;;6152827;23;20426;-68
2023/08/23 06:02:43;;;;;;;3.50;3.17;;;17.90;99.90;;;;;;6153217;23;20429;-68
2023/08/23 06:05:10;;;;;;;3.03;2.83;;;18.10;99.90;;;;;;6154276;23;20445;-69
2023/08/23 06:07:37;;;;;;;4.10;2.10;;;18.20;99.90;;;;;;6154176;23;20449;-68
2023/08/23 06:10:05;;;;;;;2.63;2.53;;;18.20;99.90;;;;;;6153321;23;20513;-68
2023/08/23 06:12:32;;;;;;;3.00;2.70;;;18.30;99.90;;;;;;6153795;23;20759;-68
2023/08/23 06:14:58;;;;;;;2.60;2.40;;;18.50;99.90;;;;;;6153593;23;20454;-69
2023/08/23 06:17:26;;;;;;;2.30;2.30;;;18.70;99.90;;;;;;6153200;23;20737;-69
2023/08/23 06:19:54;;;;;;;2.20;2.10;;;19.00;99.90;;;;;;6152821;23;20450;-68
2023/08/23 06:22:20;;;;;;;3.37;3.07;;;19.30;99.90;;;;;;6153136;23;20420;-69
2023/08/23 06:24:47;;;;;;;2.27;1.93;;;19.50;99.90;;;;;;6153439;23;20441;-68
2023/08/23 06:27:14;;;;;;;2.20;2.10;;;19.70;99.90;;;;;;6152964;23;20435;-69
2023/08/23 06:29:41;;;;;;;2.03;1.47;;;19.90;99.90;;;;;;6153714;23;20428;-68
2023/08/23 06:32:08;;;;;;;2.57;2.30;;;20.10;99.90;;;;;;6153597;23;20755;-68
2023/08/23 06:34:35;;;;;;;1.97;1.87;;;19.90;99.90;;;;;;6152341;23;20429;-69
2023/08/23 06:37:03;;;;;;;1.27;1.27;;;19.70;99.90;;;;;;6152434;23;20421;-68
2023/08/23 06:39:30;;;;;;;1.60;1.50;;;19.60;99.90;;;;;;6153352;23;20473;-68
2023/08/23 06:41:56;;;;;;;2.13;2.03;;;19.40;99.90;;;;;;6153757;23;20506;-68
2023/08/23 06:44:23;;;;;;;3.00;1.93;;;19.30;99.90;;;;;;6152234;23;20793;-68
2023/08/23 06:46:50;;;;;;;1.50;1.43;;;19.20;99.90;;;;;;6153788;23;20422;-68
2023/08/23 06:49:16;;;;;;;2.27;2.10;;;19.20;99.90;;;;;;6162660;23;20929;-69
2023/08/23 06:51:43;;;;;;;1.20;1.20;;;19.30;99.90;;;;;;6153320;23;20432;-70
2023/08/23 06:54:11;;;;;;;1.90;1.90;;;19.50;99.90;;;;;;6154058;23;20442;-68
2023/08/23 06:56:38;;;;;;;2.00;1.83;;;19.60;99.90;;;;;;6154540;23;20451;-68
2023/08/23 06:59:04;;;;;;;1.80;1.70;;;19.70;99.90;;;;;;6154867;23;20428;-68
2023/08/23 07:01:31;;;;;;;2.27;2.07;;;19.70;99.90;;;;;;6153276;23;20421;-67
2023/08/23 07:03:58;;;;;;;1.87;1.73;;;19.70;99.90;;;;;;6154224;23;20420;-67
2023/08/23 07:06:25;;;;;;;2.03;1.93;;;19.90;99.90;;;;;;6155453;23;20953;-68
2023/08/23 07:08:51;;;;;;;2.90;1.57;;;19.80;99.90;;;;;;6179098;23;20479;-68
2023/08/23 07:11:19;;;;;;;1.70;1.70;;;19.90;99.90;;;;;;6182643;23;20431;-68
2023/08/23 07:13:46;;;;;;;1.00;1.00;;;20.30;99.90;;;;;;6169283;23;20429;-69
2023/08/23 07:16:13;;;;;;;1.20;1.20;;;20.10;99.90;;;;;;6155216;23;20459;-68
2023/08/23 07:18:40;;;;;;;1.90;1.90;;;20.10;99.90;;;;;;6155112;23;20419;-68
2023/08/23 07:21:07;;;;;;;1.20;1.20;;;20.00;99.90;;;;;;6154535;23;20757;-68
2023/08/23 07:23:35;;;;;;;1.10;1.10;;;20.00;99.90;;;;;;6154917;23;20428;-68
2023/08/23 07:26:02;;;;;;;1.00;1.00;;;20.00;99.90;;;;;;6154894;23;20444;-68
2023/08/23 07:28:30;;;;;;;0.80;0.80;;;20.00;99.90;;;;;;6155703;23;20445;-68
2023/08/23 07:30:57;;;;;;;1.07;1.07;;;20.10;99.90;;;;;;6156132;23;20421;-69
2023/08/23 07:33:25;;;;;;;1.00;1.00;;;20.20;99.90;;;;;;6156680;23;20429;-68
2023/08/23 07:35:56;;;;;;;1.07;1.07;;;20.40;99.90;;;;;;6156777;23;20446;-68
2023/08/23 07:38:24;;;;;;;0.80;0.80;;;20.50;99.90;;;;;;6155518;23;20469;-68
2023/08/23 07:40:50;;;;;;;2.73;0.93;;;20.50;99.90;;;;;;6153983;23;20420;-68
2023/08/23 07:43:17;;;;;;;0.70;0.70;;;20.50;99.90;;;;;;6154027;23;20445;-68
2023/08/23 07:45:45;;;;;;;1.33;1.20;;;20.60;99.90;;;;;;6154900;23;20441;-67
2023/08/23 07:48:12;;;;;;;0.90;0.90;;;20.50;99.90;;;;;;6153998;23;20418;-68
2023/08/23 07:50:38;;;;;;;1.00;1.00;;;20.50;99.90;;;;;;6155123;23;20447;-67
2023/08/23 07:53:05;;;;;;;1.63;1.53;;;20.40;99.90;;;;;;6153994;23;20419;-67
2023/08/23 07:55:32;;;;;;;4.53;1.03;;;20.40;99.90;;;;;;6151316;23;20447;-67
2023/08/23 07:57:59;;;;;;;0.90;0.90;;;20.40;99.90;;;;;;6152339;23;20426;-69
2023/08/23 08:00:26;;;;;;;0.97;0.90;;;20.40;99.90;;;;;;6151283;23;20447;-69
2023/08/23 08:02:54;;;;;;;0.97;0.97;;;20.30;99.90;;;;;;6154524;23;20420;-69
2023/08/23 08:05:21;;;;;;;0.80;0.80;;;20.40;99.90;;;;;;6151534;23;20446;-69
2023/08/23 08:07:48;;;;;;;2.00;1.13;;;20.50;99.90;;;;;;6164292;23;20979;-69
2023/08/23 08:10:15;;;;;;;0.73;0.73;;;20.60;99.90;;;;;;6154886;23;20969;-69
2023/08/23 08:12:41;;;;;;;0.80;0.80;;;20.60;99.90;;;;;;6154530;23;20512;-69
2023/08/23 08:15:09;;;;;;;1.13;1.13;;;20.70;99.90;;;;;;6154388;23;20449;-69
2023/08/23 08:17:36;;;;;;;1.00;1.00;;;20.70;99.90;;;;;;6152428;23;20787;-69
2023/08/23 08:20:06;;;;;;;0.80;0.80;;;20.80;99.90;;;;;;6154415;23;20421;-69
2023/08/23 08:22:33;;;;;;;2.27;0.90;;;20.90;99.90;;;;;;6154635;23;20894;-68
2023/08/23 08:25:00;;;;;;;0.50;0.50;;;20.90;99.90;;;;;;6154993;23;20505;-69
2023/08/23 08:27:26;;;;;;;0.87;0.70;;;21.00;99.90;;;;;;6154025;23;20417;-69
2023/08/23 08:29:53;;;;;;;0.70;0.70;;;21.20;99.90;;;;;;6153068;23;20758;-69
2023/08/23 08:32:20;;;;;;;2.80;0.80;;;21.30;99.90;;;;;;6154060;23;20429;-69
2023/08/23 08:34:47;;;;;;;0.87;0.87;;;21.50;99.90;;;;;;6154370;23;20464;-69
2023/08/23 08:37:15;;;;;;;0.87;0.87;;;21.60;99.90;;;;;;6153783;23;20593;-69
2023/08/23 08:39:42;;;;;;;1.20;1.20;;;21.70;99.90;;;;;;6153695;23;20426;-69
2023/08/23 08:42:10;;;;;;;0.70;0.70;;;21.70;99.90;;;;;;6153859;23;20911;-69
2023/08/23 08:44:37;;;;;;;0.80;0.80;;;21.60;99.90;;;;;;6153395;23;20757;-69
2023/08/23 08:47:04;;;;;;;0.63;0.63;;;20.90;99.90;;;;;;6153427;23;20425;-69
2023/08/23 08:49:30;;;;;;;0.70;0.70;;;21.50;99.90;;;;;;6153568;23;20428;-69
2023/08/23 08:51:59;;;;;;;0.80;0.80;;;21.40;99.90;;;;;;6153991;23;20728;-69
2023/08/23 08:54:29;;;;;;;1.43;1.40;;;21.50;99.90;;;;;;6154537;23;20422;-68
2023/08/23 08:56:56;;;;;;;1.17;0.93;;;21.70;99.90;;;;;;6154343;23;20452;-69
2023/08/23 08:59:23;;;;;;;0.70;0.70;;;21.60;99.90;;;;;;6150977;23;20761;-69
2023/08/23 09:01:51;;;;;;;1.23;1.23;;;21.80;99.90;;;;;;6152413;23;20422;-69
2023/08/23 09:04:17;;;;;;;1.47;1.00;;;21.80;99.90;;;;;;6153101;23;20867;-69
2023/08/23 09:06:46;;;;;;;0.63;0.63;;;21.80;99.90;;;;;;6154528;23;20418;-69
2023/08/23 09:09:13;;;;;;;2.30;0.80;;;21.80;99.90;;;;;;6153155;23;20426;-69
2023/08/23 09:11:41;;;;;;;0.83;0.83;;;21.70;99.90;;;;;;6154040;23;20420;-69
2023/08/23 09:14:15;;;;;;;0.70;0.70;;;21.70;99.90;;;;;;6153234;23;20421;-69
2023/08/23 09:16:42;;;;;;;0.53;0.53;;;21.50;99.90;;;;;;6152575;23;20478;-68
2023/08/23 09:19:11;;;;;;;4.03;1.33;;;21.40;99.90;;;;;;6152907;23;20421;-69
2023/08/23 09:21:42;;;;;;;0.70;0.70;;;21.40;99.90;;;;;;6152858;23;20418;-68
2023/08/23 09:24:09;;;;;;;0.80;0.80;;;21.40;99.90;;;;;;6154226;23;20405;-68
2023/08/23 09:26:36;;;;;;;0.70;0.70;;;21.50;99.90;;;;;;6151664;23;20444;-68
2023/08/23 09:29:04;;;;;;;1.37;0.87;;;21.60;99.90;;;;;;6153544;23;20421;-68
2023/08/23 09:31:31;;;;;;;0.60;0.60;;;21.70;99.90;;;;;;6153523;23;20422;-68
2023/08/23 09:33:59;;;;;;;0.60;0.60;;;21.70;99.90;;;;;;6152960;23;20429;-67
2023/08/23 09:36:27;;;;;;;0.50;0.50;;;21.70;99.90;;;;;;6152939;23;20488;-67
2023/08/23 09:38:54;;;;;;;0.60;0.60;;;21.60;99.90;;;;;;6152842;23;20424;-67
2023/08/23 09:41:22;;;;;;;0.40;0.40;;;21.50;99.90;;;;;;6153446;23;20422;-68
2023/08/23 09:43:52;;;;;;;0.90;0.90;;;21.50;99.90;;;;;;6153734;23;20428;-68
2023/08/23 09:46:24;;;;;;;0.83;0.83;;;21.60;99.90;;;;;;6151328;23;20448;-68
2023/08/23 09:48:52;;;;;;;0.47;0.47;;;21.60;99.90;;;;;;6152421;23;20877;-68
2023/08/23 09:51:21;;;;;;;0.67;0.67;;;21.70;99.90;;;;;;6153262;23;20434;-68
2023/08/23 09:53:53;;;;;;;0.70;0.70;;;21.80;99.90;;;;;;6153608;23;20422;-67
2023/08/23 09:56:20;;;;;;;0.43;0.43;;;21.70;99.90;;;;;;6153571;23;20454;-68
2023/08/23 09:58:48;;;;;;;0.60;0.60;;;21.70;99.90;;;;;;6151560;23;20426;-68
2023/08/23 10:01:16;;;;;;;0.70;0.70;;;21.70;99.90;;;;;;6149622;23;20429;-68
2023/08/23 10:03:44;;;;;;;0.70;0.70;;;21.80;99.90;;;;;;6151590;23;20426;-68
2023/08/23 10:06:11;;;;;;;0.60;0.60;;;21.90;99.90;;;;;;6148312;23;20442;-68
2023/08/23 10:08:39;;;;;;;0.83;0.83;;;22.00;99.90;;;;;;6150150;23;20430;-69
2023/08/23 10:11:06;;;;;;;0.60;0.60;;;22.00;99.90;;;;;;6152610;23;20423;-69
2023/08/23 10:13:35;;;;;;;0.50;0.50;;;21.90;99.90;;;;;;6153471;23;20429;-69
2023/08/23 10:16:04;;;;;;;0.90;0.90;;;21.90;99.90;;;;;;6153402;23;20457;-68
2023/08/23 10:18:31;;;;;;;0.63;0.63;;;21.90;99.90;;;;;;6152394;23;20454;-69
2023/08/23 10:20:59;;;;;;;1.27;0.67;;;22.00;99.90;;;;;;6152523;23;20708;-68
2023/08/23 10:23:27;;;;;;;0.53;0.53;;;22.00;99.90;;;;;;6153111;23;20422;-68
2023/08/23 10:25:54;;;;;;;0.50;0.50;;;22.00;99.90;;;;;;6153774;23;20771;-68
2023/08/23 10:28:21;;;;;;;1.00;0.90;;;22.00;99.90;;;;;;6152533;23;20513;-68
2023/08/23 10:30:50;;;;;;;0.60;0.60;;;22.10;99.90;;;;;;6154309;23;20754;-68
2023/08/23 10:33:18;;;;;;;0.80;0.80;;;22.20;99.90;;;;;;6152626;23;20422;-68
2023/08/23 10:35:45;;;;;;;0.50;0.40;;;22.30;99.90;;;;;;6153018;23;20448;-67
2023/08/23 10:38:14;;;;;;;0.50;0.50;;;22.30;99.90;;;;;;6154232;23;20962;-68
2023/08/23 10:40:43;;;;;;;0.60;0.60;;;22.20;99.90;;;;;;6152701;23;20429;-67
2023/08/23 10:43:14;;;;;;;0.47;0.47;;;22.30;99.90;;;;;;6153144;23;20422;-67
2023/08/23 10:45:55;;;;;;;0.73;0.73;;;22.40;99.90;;;;;;6153535;23;20928;-67
2023/08/23 10:48:23;;;;;;;0.53;0.53;;;22.50;99.90;;;;;;6154859;23;20410;-67
2023/08/23 10:50:50;;;;;;;0.70;0.70;;;22.60;99.90;;;;;;6155501;23;20419;-67
2023/08/23 10:53:19;;;;;;;0.57;0.57;;;22.60;99.90;;;;;;6154437;23;20430;-67
2023/08/23 10:55:46;;;;;;;0.77;0.77;;;22.60;99.90;;;;;;6153840;23;20448;-68
2023/08/23 10:58:13;;;;;;;2.40;0.77;;;22.60;99.90;;;;;;6154617;23;20455;-68
2023/08/23 11:00:41;;;;;;;0.50;0.50;;;22.60;99.90;;;;;;6154207;23;20419;-68
2023/08/23 11:03:09;;;;;;;0.63;0.60;;;22.70;99.90;;;;;;6154420;23;20798;-67
2023/08/23 11:05:36;;;;;;;0.43;0.43;;;22.70;99.90;;;;;;6153505;23;20803;-68
2023/08/23 11:08:02;;;;;;;0.60;0.60;;;22.80;99.90;;;;;;6153514;23;20419;-67
2023/08/23 11:10:31;;;;;;;0.63;0.63;;;22.80;99.90;;;;;;6152477;23;20423;-67
2023/08/23 11:12:57;;;;;;;0.50;0.50;;;23.00;99.90;;;;;;6154542;23;20483;-67
2023/08/23 11:15:25;;;;;;;0.50;0.50;;;23.10;99.90;;;;;;6154465;23;20454;-68
2023/08/23 11:17:52;;;;;;;1.53;0.60;;;23.20;99.90;;;;;;6153802;23;20447;-68
2023/08/23 11:20:19;;;;;;;0.40;0.40;;;23.30;99.90;;;;;;6154536;23;20419;-67
2023/08/23 11:22:47;;;;;;;0.63;0.63;;;23.40;99.90;;;;;;6154680;23;20513;-68
2023/08/23 11:25:13;;;;;;;0.53;0.53;;;23.20;99.90;;;;;;6152670;23;20442;-68
2023/08/23 11:27:42;;;;;;;0.53;0.53;;;23.30;99.90;;;;;;6155868;23;20416;-68
2023/08/23 11:30:09;;;;;;;0.40;0.40;;;23.40;99.90;;;;;;6153327;23;20452;-68
2023/08/23 11:32:37;;;;;;;2.57;2.33;;;23.50;99.90;;;;;;6156195;23;20420;-69
2023/08/23 11:35:06;;;;;;;0.60;0.60;;;23.40;99.90;;;;;;6154665;23;20807;-69
2023/08/23 11:37:36;;;;;;;0.80;0.80;;;23.40;99.90;;;;;;6155465;23;20447;-69
2023/08/23 11:40:07;;;;;;;0.70;0.70;;;23.30;99.90;;;;;;6154705;23;20428;-68
2023/08/23 11:42:35;;;;;;;3.90;1.10;;;23.30;99.90;;;;;;6152439;23;20445;-68
2023/08/23 11:45:04;;;;;;;0.83;0.83;;;23.30;99.90;;;;;;6151290;23;20450;-68
2023/08/23 11:47:31;;;;;;;0.80;0.80;;;23.30;99.90;;;;;;6152136;23;20423;-68
2023/08/23 11:49:58;;;;;;;0.63;0.60;;;23.40;99.90;;;;;;6153715;23;20426;-68
2023/08/23 11:52:28;;;;;;;3.10;0.70;;;23.40;99.90;;;;;;6154365;23;20419;-68
2023/08/23 11:54:55;;;;;;;1.10;1.10;;;23.40;99.90;;;;;;6154771;23;20439;-68
2023/08/23 11:57:22;;;;;;;0.60;0.60;;;23.50;99.90;;;;;;6154075;23;20831;-68
2023/08/23 11:59:49;;;;;;;0.50;0.50;;;23.50;99.90;;;;;;6154088;23;20568;-67
2023/08/23 12:02:17;;;;;;;0.80;0.80;;;23.60;99.90;;;;;;6154310;23;20422;-68
2023/08/23 12:04:44;;;;;;;0.50;0.50;;;23.70;99.90;;;;;;6154688;23;20519;-68
2023/08/23 12:07:11;;;;;;;0.80;0.80;;;23.80;99.90;;;;;;6153993;23;20742;-68
2023/08/23 12:09:39;;;;;;;0.67;0.67;;;23.90;99.90;;;;;;6154249;23;20423;-68
2023/08/23 12:12:07;;;;;;;0.73;0.73;;;23.90;99.90;;;;;;6153563;23;20420;-68
2023/08/23 12:14:33;;;;;;;1.07;0.70;;;23.90;99.90;;;;;;6152075;23;20425;-68
2023/08/23 12:17:00;;;;;;;0.50;0.50;;;23.90;99.90;;;;;;6151020;23;20443;-68
2023/08/23 12:19:29;;;;;;;0.80;0.80;;;23.80;99.90;;;;;;6153010;23;20426;-68
2023/08/23 12:21:56;;;;;;;2.20;0.90;;;23.70;99.90;;;;;;6153492;23;20585;-68
2023/08/23 12:24:23;;;;;;;0.53;0.53;;;23.80;99.90;;;;;;6153039;23;20491;-68
2023/08/23 12:26:49;;;;;;;1.43;1.00;;;23.90;99.90;;;;;;6153620;23;20425;-68
2023/08/23 12:29:16;;;;;;;0.83;0.80;;;23.90;99.90;;;;;;6151769;23;20683;-68
2023/08/23 12:31:43;;;;;;;1.17;1.17;;;24.00;99.90;;;;;;6151397;23;20435;-67
2023/08/23 12:34:09;;;;;;;1.00;1.00;;;24.10;99.90;;;;;;6152350;23;20421;-68
2023/08/23 12:36:37;;;;;;;1.27;1.27;;;24.20;99.90;;;;;;6150756;23;20441;-68
2023/08/23 12:39:04;;;;;;;0.97;0.97;;;24.30;99.90;;;;;;6150067;23;21081;-68
2023/08/23 12:41:31;;;;;;;1.30;1.30;;;24.40;99.90;;;;;;6152822;23;20422;-68
2023/08/23 12:43:59;;;;;;;0.70;0.70;;;24.40;99.90;;;;;;6153126;23;20466;-68
2023/08/23 12:46:27;;;;;;;1.10;1.10;;;24.40;99.90;;;;;;6151347;23;20968;-68
2023/08/23 12:48:53;;;;;;;0.93;0.93;;;24.50;99.90;;;;;;6150366;23;20417;-68
2023/08/23 12:51:20;;;;;;;1.13;1.13;;;24.60;99.90;;;;;;6152696;23;20419;-68
2023/08/23 12:53:48;;;;;;;1.27;1.27;;;24.60;99.90;;;;;;6150511;23;20450;-68
2023/08/23 12:56:15;;;;;;;1.43;1.43;;;24.70;99.90;;;;;;6152426;23;20447;-68
2023/08/23 12:58:42;;;;;;;1.20;1.20;;;24.70;99.90;;;;;;6153020;23;20502;-67
2023/08/23 13:01:08;;;;;;;1.10;1.10;;;24.60;99.90;;;;;;6150496;23;20434;-67
2023/08/23 13:03:35;;;;;;;1.10;1.00;;;24.50;99.90;;;;;;6152605;23;20423;-67
2023/08/23 13:06:02;;;;;;;1.47;1.47;;;24.40;99.90;;;;;;6152974;23;20505;-68
2023/08/23 13:08:28;;;;;;;0.97;0.97;;;24.40;99.90;;;;;;6153199;23;20423;-67
2023/08/23 13:10:56;;;;;;;0.80;0.80;;;24.50;99.90;;;;;;6152355;23;20510;-67
2023/08/23 13:13:23;;;;;;;0.97;0.97;;;24.40;99.90;;;;;;6151410;23;21020;-68
2023/08/23 13:15:50;;;;;;;0.90;0.90;;;24.40;99.90;;;;;;6151381;23;20497;-67
2023/08/23 13:18:16;;;;;;;1.27;1.27;;;24.50;99.90;;;;;;6152464;23;20457;-67
2023/08/23 13:20:43;;;;;;;1.10;1.10;;;24.50;99.90;;;;;;6153050;23;20431;-68
2023/08/23 13:23:10;;;;;;;1.20;1.20;;;24.50;99.90;;;;;;6154148;23;20422;-68
2023/08/23 13:25:36;;;;;;;1.47;1.40;;;24.50;99.90;;;;;;6151332;23;20452;-68
2023/08/23 13:28:05;;;;;;;1.20;1.20;;;24.50;99.90;;;;;;6152422;23;20423;-68
2023/08/23 13:30:31;;;;;;;1.23;1.23;;;24.40;99.90;;;;;;6152757;23;20442;-68
2023/08/23 13:32:58;;;;;;;1.10;1.10;;;24.30;99.90;;;;;;6153197;23;20422;-68
2023/08/23 13:35:25;;;;;;;1.57;1.57;;;24.20;99.90;;;;;;6152300;23;20949;-67
2023/08/23 13:37:51;;;;;;;1.10;1.00;;;24.40;99.90;;;;;;6151971;23;20938;-67
2023/08/23 13:40:18;;;;;;;1.13;1.13;;;24.50;99.90;;;;;;6151147;23;20421;-67
2023/08/23 13:42:45;;;;;;;1.10;1.10;;;24.60;99.90;;;;;;6150370;23;20427;-67
2023/08/23 13:45:13;;;;;;;1.40;1.40;;;24.60;99.90;;;;;;6152134;23;20440;-67
2023/08/23 13:47:40;;;;;;;1.13;1.13;;;24.70;99.90;;;;;;6152459;23;20424;-67
2023/08/23 13:50:09;;;;;;;1.10;1.10;;;24.80;99.90;;;;;;6151534;23;20904;-67
2023/08/23 13:52:35;;;;;;;1.40;1.40;;;24.80;99.90;;;;;;6152022;23;20476;-67
2023/08/23 13:55:04;;;;;;;1.60;1.50;;;24.90;99.90;;;;;;6151600;23;20441;-67
2023/08/23 13:57:31;;;;;;;1.20;1.20;;;25.00;99.90;;;;;;6149709;23;21002;-67
2023/08/23 13:59:58;;;;;;;1.17;1.17;;;24.90;99.90;;;;;;6150035;23;20783;-67
2023/08/23 14:02:26;;;;;;;1.40;1.40;;;24.80;99.90;;;;;;6151838;23;20434;-67
2023/08/23 14:04:52;;;;;;;1.60;1.50;;;24.70;99.90;;;;;;6153004;23;20463;-68
2023/08/23 14:07:19;;;;;;;1.87;1.87;;;24.60;99.90;;;;;;6154235;23;20415;-68
2023/08/23 14:09:46;;;;;;;1.70;1.60;;;24.50;99.90;;;;;;6153670;23;20914;-68
2023/08/23 14:12:12;;;;;;;0.97;0.97;;;24.40;99.90;;;;;;6151239;23;20743;-67
2023/08/23 14:14:39;;;;;;;1.10;1.10;;;24.30;99.90;;;;;;6153893;23;20483;-68
2023/08/23 14:17:06;;;;;;;1.10;1.10;;;24.30;99.90;;;;;;6154124;23;20412;-68
2023/08/23 14:19:45;;;;;;;1.30;1.30;;;24.30;99.90;;;;;;6154639;23;20424;-68
2023/08/23 14:22:11;;;;;;;1.43;1.13;;;24.40;99.90;;;;;;6155733;23;20875;-68
2023/08/23 14:24:38;;;;;;;1.10;1.10;;;24.40;99.90;;;;;;6154784;23;20920;-68
2023/08/23 14:27:05;;;;;;;1.60;1.50;;;24.40;99.90;;;;;;6153908;23;20421;-67
2023/08/23 14:29:32;;;;;;;1.30;1.30;;;24.40;99.90;;;;;;6153862;23;20420;-67
2023/08/23 14:31:59;;;;;;;1.00;1.00;;;24.40;99.90;;;;;;6153206;23;20425;-67
2023/08/23 14:34:25;;;;;;;1.63;1.53;;;24.50;99.90;;;;;;6153824;23;20457;-67
2023/08/23 14:36:53;;;;;;;1.40;1.40;;;24.50;99.90;;;;;;6154082;23;20744;-67
2023/08/23 14:39:20;;;;;;;2.57;1.73;;;24.40;99.90;;;;;;6153845;23;20755;-68
2023/08/23 14:41:47;;;;;;;1.60;1.60;;;24.40;99.90;;;;;;6152564;23;20431;-68
2023/08/23 14:44:14;;;;;;;2.97;2.40;;;24.40;99.90;;;;;;6153207;23;20431;-68
2023/08/23 14:46:40;;;;;;;1.13;1.13;;;24.40;99.90;;;;;;6153165;23;20446;-68
2023/08/23 14:49:07;;;;;;;1.40;1.40;;;24.40;99.90;;;;;;6153917;23;20433;-68
2023/08/23 14:51:34;;;;;;;1.40;1.40;;;24.50;99.90;;;;;;6154201;23;20421;-68
2023/08/23 14:54:02;;;;;;;1.57;1.47;;;24.50;99.90;;;;;;6153812;23;20422;-68
2023/08/23 14:56:29;;;;;;;1.50;1.50;;;24.50;99.90;;;;;;6153327;23;20808;-68
2023/08/23 14:58:56;;;;;;;1.43;1.43;;;24.50;99.90;;;;;;6152337;23;20958;-68
2023/08/23 15:01:23;;;;;;;1.27;1.27;;;24.60;99.90;;;;;;6153884;23;20430;-67
2023/08/23 15:03:50;;;;;;;1.43;1.33;;;24.60;99.90;;;;;;6154039;23;20429;-67
2023/08/23 15:06:16;;;;;;;1.70;1.23;;;24.50;99.90;;;;;;6153114;23;20444;-68
2023/08/23 15:08:44;;;;;;;1.37;1.37;;;24.40;99.90;;;;;;6153503;23;20424;-68
2023/08/23 15:11:12;;;;;;;1.37;1.37;;;24.30;99.90;;;;;;6153304;23;20420;-68
2023/08/23 15:13:39;;;;;;;1.00;1.00;;;24.40;99.90;;;;;;6153576;23;20432;-67
2023/08/23 15:16:06;;;;;;;1.27;1.27;;;24.50;99.90;;;;;;6162256;23;20453;-68
2023/08/23 15:18:32;;;;;;;1.33;1.30;;;24.40;99.90;;;;;;6154846;23;20952;-67
2023/08/23 15:20:59;;;;;;;2.93;1.20;;;24.40;99.90;;;;;;6156155;23;20509;-68
2023/08/23 15:23:26;;;;;;;1.13;1.13;;;24.40;99.90;;;;;;6156143;23;20427;-68
2023/08/23 15:25:52;;;;;;;1.27;1.27;;;24.30;99.90;;;;;;6156986;23;20995;-68
2023/08/23 15:28:21;;;;;;;0.90;0.90;;;24.30;99.90;;;;;;6157229;23;20444;-68
2023/08/23 15:30:48;;;;;;;1.30;1.30;;;24.30;99.90;;;;;;6156480;23;20515;-68
2023/08/23 15:33:14;;;;;;;1.10;1.10;;;24.40;99.90;;;;;;6155994;23;20709;-68
2023/08/23 15:35:41;;;;;;;1.33;1.33;;;24.40;99.90;;;;;;6155352;23;20438;-68
2023/08/23 15:38:11;;;;;;;1.10;1.10;;;24.40;99.90;;;;;;6155800;23;20462;-68
2023/08/23 15:40:37;;;;;;;1.40;1.40;;;24.50;99.90;;;;;;6154425;23;20517;-68
2023/08/23 15:43:04;;;;;;;0.97;0.97;;;24.50;99.90;;;;;;6155734;23;20445;-68
2023/08/23 15:45:32;;;;;;;1.33;1.33;;;24.50;99.90;;;;;;6155398;23;20441;-68
2023/08/23 15:47:59;;;;;;;1.30;1.30;;;24.60;99.90;;;;;;6155212;23;20418;-68
2023/08/23 15:50:26;;;;;;;0.93;0.93;;;24.70;99.90;;;;;;6155081;23;20741;-68
2023/08/23 15:52:52;;;;;;;1.47;1.47;;;24.70;99.90;;;;;;6155227;23;20421;-68
2023/08/23 15:55:19;;;;;;;1.20;1.20;;;24.70;99.90;;;;;;6154875;23;20438;-68
2023/08/23 15:57:46;;;;;;;1.00;1.00;;;24.70;99.90;;;;;;6155478;23;20750;-68
2023/08/23 16:00:14;;;;;;;1.27;1.27;;;24.70;99.90;;;;;;6155597;23;20427;-69
2023/08/23 16:02:42;;;;;;;1.00;1.00;;;24.50;99.90;;;;;;6155437;23;20428;-70
2023/08/23 16:05:10;;;;;;;1.10;1.10;;;24.50;99.90;;;;;;6154795;23;20456;-70
2023/08/23 16:07:37;;;;;;;1.13;1.13;;;24.70;99.90;;;;;;6154114;23;20456;-70
2023/08/23 16:10:05;;;;;;;1.27;1.27;;;24.70;99.90;;;;;;6154224;23;20422;-70
2023/08/23 16:12:32;;;;;;;1.20;1.20;;;24.70;99.90;;;;;;6155330;23;20480;-69
2023/08/23 16:14:59;;;;;;;4.10;1.20;;;24.80;99.90;;;;;;6155534;23;20779;-70
2023/08/23 16:17:26;;;;;;;1.60;1.60;;;24.80;99.90;;;;;;6152021;23;20987;-72
2023/08/23 16:19:54;;;;;;;1.23;1.23;;;24.80;99.90;;;;;;6153839;23;20447;-72
2023/08/23 16:22:20;;;;;;;0.87;0.87;;;24.70;99.90;;;;;;6151785;23;20424;-72
2023/08/23 16:24:50;;;;;;;1.07;1.07;;;24.60;99.90;;;;;;6153376;23;20928;-71
2023/08/23 16:27:17;;;;;;;1.50;1.50;;;24.50;99.90;;;;;;6153525;23;20516;-71
2023/08/23 16:29:43;;;;;;;1.53;1.53;;;24.40;99.90;;;;;;6151872;23;20417;-71
2023/08/23 16:32:10;;;;;;;1.40;1.40;;;24.30;99.90;;;;;;6153637;23;20425;-71
2023/08/23 16:34:37;;;;;;;1.07;1.03;;;24.20;99.90;;;;;;6154267;23;20427;-71
2023/08/23 16:37:05;;;;;;;1.53;1.43;;;24.10;99.90;;;;;;6154380;23;20452;-71
2023/08/23 16:39:31;;;;;;;1.13;1.13;;;24.10;99.90;;;;;;6153341;23;20446;-71
2023/08/23 16:41:58;;;;;;;0.70;0.70;;;24.00;99.90;;;;;;6154967;23;20420;-71
2023/08/23 16:44:25;;;;;;;1.50;1.40;;;23.90;99.90;;;;;;6154492;23;20589;-71
2023/08/23 16:46:51;;;;;;;1.13;1.13;;;23.90;99.90;;;;;;6153285;23;20448;-72
2023/08/23 16:49:19;;;;;;;1.20;1.20;;;23.90;99.90;;;;;;6154212;23;20441;-71